createdAt,value
2018-01-29T00:00:19.707Z,212.37
2018-01-29T00:02:48.979Z,241.73
2018-01-29T00:05:17.647Z,191.50
2018-01-29T00:07:46.205Z,195.33
2018-01-29T00:10:14.708Z,189.70
2018-01-29T00:12:43.347Z,190.33
2018-01-29T00:15:12.696Z,191.50
2018-01-29T00:17:41.255Z,194.47
2018-01-29T00:20:09.806Z,199.63
2018-01-29T00:22:39.073Z,173.03
2018-01-29T00:25:07.636Z,182.20
2018-01-29T00:27:36.175Z,194.47
2018-01-29T00:30:04.685Z,179.90
2018-01-29T00:32:33.236Z,175.37
2018-01-29T00:35:02.612Z,176.20
2018-01-29T00:37:31.944Z,178.93
2018-01-29T00:40:00.508Z,177.73
2018-01-29T00:42:30.222Z,169.87
2018-01-29T00:44:59.545Z,170.47
2018-01-29T00:47:28.048Z,181.20
2018-01-29T00:49:56.601Z,166.43
2018-01-29T00:52:25.127Z,160.17
2018-01-29T00:54:53.664Z,165.80
2018-01-29T00:57:22.427Z,176.17
2018-01-29T00:59:50.927Z,153.00
2018-01-29T01:02:20.249Z,163.40
2018-01-29T01:04:48.792Z,172.40
2018-01-29T01:07:17.291Z,183.90
2018-01-29T01:09:46.620Z,167.07
2018-01-29T01:12:15.466Z,153.83
2018-01-29T01:14:43.973Z,129.60
2018-01-29T01:17:13.235Z,130.50
2018-01-29T01:19:41.871Z,121.03
2018-01-29T01:22:10.452Z,116.40
2018-01-29T01:24:38.946Z,117.30
2018-01-29T01:27:07.551Z,111.33
2018-01-29T01:29:36.055Z,111.23
2018-01-29T01:32:04.612Z,110.73
2018-01-29T01:34:33.335Z,91.60
2018-01-29T01:37:01.885Z,107.17
2018-01-29T01:39:30.366Z,86.23
2018-01-29T01:41:58.895Z,72.73
2018-01-29T01:44:28.147Z,75.80
2018-01-29T01:46:56.619Z,68.17
2018-01-29T01:49:31.954Z,62.67
2018-01-29T01:52:00.515Z,63.23
2018-01-29T01:54:29.060Z,61.50
2018-01-29T01:56:57.852Z,57.53
2018-01-29T01:59:27.846Z,58.07
2018-01-29T02:01:56.346Z,58.23
2018-01-29T02:04:24.889Z,58.37
2018-01-29T02:06:53.435Z,62.60
2018-01-29T02:09:22.703Z,68.37
2018-01-29T02:11:51.235Z,69.90
2018-01-29T02:14:19.726Z,83.07
2018-01-29T02:16:48.207Z,75.43
2018-01-29T02:19:16.739Z,79.50
2018-01-29T02:21:45.247Z,71.27
2018-01-29T02:24:14.503Z,79.73
2018-01-29T02:26:43.075Z,69.97
2018-01-29T02:29:11.559Z,74.70
2018-01-29T02:31:40.051Z,76.20
2018-01-29T02:34:08.589Z,82.33
2018-01-29T02:36:37.101Z,73.00
2018-01-29T02:39:05.611Z,81.40
2018-01-29T02:41:34.163Z,87.40
2018-01-29T02:44:02.729Z,110.40
2018-01-29T02:46:31.292Z,113.70
2018-01-29T02:48:59.855Z,82.57
2018-01-29T02:51:29.123Z,84.83
2018-01-29T02:53:57.627Z,79.60
2018-01-29T02:56:27.092Z,87.43
2018-01-29T02:58:55.591Z,85.23
2018-01-29T03:01:24.846Z,112.50
2018-01-29T03:03:53.703Z,108.43
2018-01-29T03:06:22.260Z,87.07
2018-01-29T03:08:50.746Z,90.57
2018-01-29T03:11:19.659Z,91.53
2018-01-29T03:13:48.923Z,136.00
2018-01-29T03:16:17.412Z,98.37
2018-01-29T03:18:46.364Z,88.30
2018-01-29T03:21:14.912Z,98.33
2018-01-29T03:23:43.403Z,89.67
2018-01-29T03:26:12.762Z,80.83
2018-01-29T03:28:41.246Z,75.93
2018-01-29T03:31:09.742Z,71.57
2018-01-29T03:33:38.271Z,76.23
2018-01-29T03:36:07.516Z,76.83
2018-01-29T03:38:35.990Z,73.47
2018-01-29T03:41:04.534Z,71.77
2018-01-29T03:43:33.085Z,73.50
2018-01-29T03:46:01.569Z,70.77
2018-01-29T03:48:31.036Z,72.30
2018-01-29T03:50:59.515Z,77.00
2018-01-29T03:53:27.995Z,68.93
2018-01-29T03:55:56.521Z,70.50
2018-01-29T03:58:25.771Z,99.50
2018-01-29T04:00:54.334Z,87.87
2018-01-29T04:03:23.091Z,82.70
2018-01-29T04:05:51.639Z,116.30
2018-01-29T04:08:20.170Z,85.37
2018-01-29T04:10:49.481Z,82.77
2018-01-29T04:13:18.032Z,76.80
2018-01-29T04:15:48.031Z,76.83
2018-01-29T04:18:16.735Z,71.63
2018-01-29T04:20:45.220Z,74.43
2018-01-29T04:23:13.707Z,76.40
2018-01-29T04:25:43.154Z,81.33
2018-01-29T04:28:11.639Z,80.43
2018-01-29T04:30:40.147Z,106.30
2018-01-29T04:33:08.835Z,120.60
2018-01-29T04:35:37.397Z,113.53
2018-01-29T04:38:05.943Z,100.23
2018-01-29T04:40:35.489Z,133.60
2018-01-29T04:43:03.983Z,113.07
2018-01-29T04:45:33.439Z,147.63
2018-01-29T04:48:01.967Z,96.53
2018-01-29T04:50:30.472Z,101.40
2018-01-29T04:52:59.819Z,94.67
2018-01-29T04:55:28.563Z,95.47
2018-01-29T04:57:57.060Z,103.67
2018-01-29T05:00:26.315Z,88.97
2018-01-29T05:02:54.911Z,98.33
2018-01-29T05:05:23.403Z,117.83
2018-01-29T05:07:51.957Z,124.13
2018-01-29T05:10:20.731Z,149.53
2018-01-29T05:12:49.280Z,160.17
2018-01-29T05:15:18.599Z,110.77
2018-01-29T05:17:47.473Z,135.03
2018-01-29T05:20:16.820Z,134.50
2018-01-29T05:22:45.315Z,160.07
2018-01-29T05:25:14.019Z,172.47
2018-01-29T05:27:42.512Z,175.80
2018-01-29T05:30:11.043Z,186.97
2018-01-29T05:32:39.770Z,214.50
2018-01-29T05:38:17.455Z,211.93
2018-01-29T05:40:46.009Z,234.23
2018-01-29T05:43:14.495Z,237.90
2018-01-29T05:45:43.047Z,243.13
2018-01-29T05:48:11.619Z,249.03
2018-01-29T05:50:40.128Z,248.93
2018-01-29T05:53:08.762Z,241.67
2018-01-29T05:55:38.016Z,196.17
2018-01-29T05:58:06.515Z,184.27
2018-01-29T06:00:35.051Z,190.37
2018-01-29T06:03:03.560Z,182.93
2018-01-29T06:05:32.067Z,174.53
2018-01-29T06:08:00.607Z,227.20
2018-01-29T06:10:29.094Z,187.80
2018-01-29T06:12:57.591Z,201.80
2018-01-29T06:15:26.187Z,230.43
2018-01-29T06:17:54.735Z,291.43
2018-01-29T06:20:23.283Z,191.43
2018-01-29T06:22:52.619Z,151.53
2018-01-29T06:25:21.100Z,189.93
2018-01-29T06:27:49.604Z,177.67
2018-01-29T06:30:18.142Z,170.63
2018-01-29T06:32:46.642Z,189.83
2018-01-29T06:35:15.187Z,176.83
2018-01-29T06:37:45.288Z,183.73
2018-01-29T06:40:13.846Z,146.00
2018-01-29T06:42:42.922Z,145.23
2018-01-29T06:45:11.455Z,148.80
2018-01-29T06:47:40.041Z,144.37
2018-01-29T06:50:08.526Z,120.40
2018-01-29T06:52:38.088Z,143.60
2018-01-29T06:55:06.620Z,139.13
2018-01-29T06:57:35.267Z,109.17
2018-01-29T07:00:03.988Z,107.47
2018-01-29T07:02:33.244Z,89.63
2018-01-29T07:05:01.733Z,109.47
2018-01-29T07:07:30.520Z,103.00
2018-01-29T07:09:59.819Z,86.40
2018-01-29T07:12:28.458Z,77.57
2018-01-29T07:14:58.121Z,69.60
2018-01-29T07:17:26.807Z,75.13
2018-01-29T07:19:55.307Z,73.37
2018-01-29T07:22:24.098Z,82.97
2018-01-29T07:24:52.755Z,71.53
2018-01-29T07:27:22.163Z,84.87
2018-01-29T07:29:50.695Z,57.30
2018-01-29T07:32:20.100Z,49.13
2018-01-29T07:34:49.550Z,41.43
2018-01-29T07:37:18.471Z,43.63
2018-01-29T07:39:49.358Z,37.53
2018-01-29T07:42:17.859Z,40.40
2018-01-29T07:44:46.400Z,43.97
2018-01-29T07:47:14.900Z,47.87
2018-01-29T07:49:43.392Z,47.17
2018-01-29T07:52:12.027Z,52.90
2018-01-29T07:54:41.288Z,75.07
2018-01-29T07:57:09.784Z,83.30
2018-01-29T07:59:38.404Z,83.53
2018-01-29T08:02:07.671Z,43.00
2018-01-29T08:04:36.161Z,32.20
2018-01-29T08:07:04.769Z,29.90
2018-01-29T08:09:34.092Z,23.47
2018-01-29T08:12:02.601Z,31.40
2018-01-29T08:14:31.147Z,28.80
2018-01-29T08:16:59.707Z,31.40
2018-01-29T08:19:28.267Z,27.67
2018-01-29T08:21:56.912Z,31.30
2018-01-29T08:24:25.469Z,28.10
2018-01-29T08:26:54.792Z,29.63
2018-01-29T08:29:23.539Z,36.43
2018-01-29T08:31:52.036Z,32.30
2018-01-29T08:34:20.539Z,26.73
2018-01-29T08:36:49.248Z,36.00
2018-01-29T08:39:17.978Z,27.53
2018-01-29T08:41:46.543Z,48.80
2018-01-29T08:44:16.761Z,23.33
2018-01-29T08:46:46.108Z,21.90
2018-01-29T08:49:14.608Z,20.93
2018-01-29T08:51:43.216Z,25.13
2018-01-29T08:54:11.715Z,25.73
2018-01-29T08:56:40.281Z,19.13
2018-01-29T08:59:09.236Z,31.33
2018-01-29T09:01:37.740Z,50.70
2018-01-29T09:04:06.237Z,50.87
2018-01-29T09:06:34.803Z,25.90
2018-01-29T09:09:03.392Z,22.53
2018-01-29T09:11:31.896Z,21.40
2018-01-29T09:14:00.693Z,23.77
2018-01-29T09:16:29.972Z,24.97
2018-01-29T09:18:59.248Z,56.40
2018-01-29T09:21:27.784Z,13.50
2018-01-29T09:23:56.280Z,11.80
2018-01-29T09:26:24.784Z,13.23
2018-01-29T09:28:53.550Z,11.67
2018-01-29T09:31:22.029Z,12.23
2018-01-29T09:33:50.589Z,8.13
2018-01-29T09:36:20.101Z,10.63
2018-01-29T09:38:48.610Z,10.30
2018-01-29T09:41:17.109Z,8.97
2018-01-29T09:43:45.748Z,14.90
2018-01-29T09:46:15.016Z,27.50
2018-01-29T09:48:43.536Z,13.73
2018-01-29T09:51:12.999Z,11.13
2018-01-29T09:53:41.502Z,18.80
2018-01-29T09:56:10.826Z,20.30
2018-01-29T09:58:39.467Z,9.13
2018-01-29T10:01:07.967Z,13.03
2018-01-29T10:03:37.232Z,9.53
2018-01-29T10:06:06.543Z,10.83
2018-01-29T10:08:35.865Z,9.93
2018-01-29T10:11:04.356Z,12.47
2018-01-29T10:13:32.958Z,9.33
2018-01-29T10:16:01.516Z,10.90
2018-01-29T10:18:30.081Z,10.03
2018-01-29T10:20:58.836Z,10.87
2018-01-29T10:23:27.346Z,7.93
2018-01-29T10:25:55.906Z,12.57
2018-01-29T10:28:24.849Z,7.80
2018-01-29T10:30:53.351Z,16.03
2018-01-29T10:33:21.903Z,9.43
2018-01-29T10:35:50.565Z,13.67
2018-01-29T10:38:19.079Z,13.87
2018-01-29T10:40:47.571Z,10.20
2018-01-29T10:43:16.119Z,13.70
2018-01-29T10:45:44.643Z,14.53
2018-01-29T10:48:13.911Z,15.70
2018-01-29T10:50:42.524Z,11.50
2018-01-29T10:53:11.040Z,15.97
2018-01-29T10:55:39.896Z,8.70
2018-01-29T10:58:08.702Z,15.97
2018-01-29T11:00:42.735Z,11.03
2018-01-29T11:03:12.068Z,11.47
2018-01-29T11:05:40.568Z,7.57
2018-01-29T11:08:09.131Z,12.53
2018-01-29T11:10:37.739Z,11.07
2018-01-29T11:13:07.033Z,18.40
2018-01-29T11:15:35.543Z,27.00
2018-01-29T11:18:04.403Z,21.97
2018-01-29T11:20:32.913Z,20.80
2018-01-29T11:23:02.245Z,10.00
2018-01-29T11:25:31.007Z,44.53
2018-01-29T11:28:00.327Z,23.87
2018-01-29T11:30:28.858Z,17.63
2018-01-29T11:32:57.520Z,15.97
2018-01-29T11:35:26.024Z,17.30
2018-01-29T11:37:54.525Z,31.63
2018-01-29T11:40:23.323Z,17.17
2018-01-29T11:42:51.836Z,37.07
2018-01-29T11:45:20.389Z,36.33
2018-01-29T11:47:48.933Z,58.80
2018-01-29T11:50:18.328Z,16.83
2018-01-29T11:52:46.839Z,24.73
2018-01-29T11:55:16.332Z,16.87
2018-01-29T11:57:44.895Z,11.00
2018-01-29T12:00:14.211Z,13.10
2018-01-29T12:02:42.927Z,7.77
2018-01-29T12:05:11.434Z,8.33
2018-01-29T12:07:39.941Z,9.90
2018-01-29T12:10:09.308Z,13.60
2018-01-29T12:12:37.833Z,16.83
2018-01-29T12:15:06.356Z,16.63
2018-01-29T12:17:35.000Z,12.30
2018-01-29T12:20:03.502Z,8.30
2018-01-29T12:22:32.763Z,17.67
2018-01-29T12:25:01.403Z,8.93
2018-01-29T12:27:30.736Z,10.47
2018-01-29T12:29:59.299Z,18.60
2018-01-29T12:32:28.329Z,10.40
2018-01-29T12:34:57.623Z,9.40
2018-01-29T12:37:26.119Z,9.33
2018-01-29T12:39:54.751Z,6.93
2018-01-29T12:42:23.248Z,8.73
2018-01-29T12:44:51.799Z,9.10
2018-01-29T12:47:21.203Z,9.90
2018-01-29T12:49:50.604Z,14.33
2018-01-29T12:52:19.932Z,14.73
2018-01-29T12:54:48.547Z,8.40
2018-01-29T12:57:17.028Z,8.93
2018-01-29T12:59:45.524Z,9.00
2018-01-29T13:02:15.119Z,19.17
2018-01-29T13:04:43.620Z,9.40
2018-01-29T13:07:12.125Z,14.17
2018-01-29T13:09:41.435Z,13.77
2018-01-29T13:12:09.932Z,33.87
2018-01-29T13:14:38.440Z,12.47
2018-01-29T13:17:07.044Z,11.43
2018-01-29T13:19:35.540Z,11.77
2018-01-29T13:22:04.807Z,8.83
2018-01-29T13:24:33.343Z,9.30
2018-01-29T13:27:01.901Z,11.90
2018-01-29T13:29:31.067Z,15.70
2018-01-29T13:31:59.848Z,14.07
2018-01-29T13:34:28.359Z,17.50
2018-01-29T13:36:57.655Z,33.00
2018-01-29T13:39:26.200Z,11.77
2018-01-29T13:41:54.695Z,14.00
2018-01-29T13:44:24.023Z,19.83
2018-01-29T13:46:52.853Z,15.17
2018-01-29T13:49:21.347Z,12.67
2018-01-29T13:51:49.852Z,14.70
2018-01-29T13:54:19.417Z,19.17
2018-01-29T13:56:47.921Z,21.93
2018-01-29T13:59:16.427Z,15.47
2018-01-29T14:01:45.795Z,14.10
2018-01-29T14:04:14.287Z,33.80
2018-01-29T14:06:42.852Z,23.30
2018-01-29T14:09:11.501Z,17.40
2018-01-29T14:11:39.995Z,12.53
2018-01-29T14:14:08.509Z,15.70
2018-01-29T14:16:37.134Z,16.73
2018-01-29T14:19:06.467Z,18.70
2018-01-29T14:21:35.062Z,22.20
2018-01-29T14:24:03.606Z,31.33
2018-01-29T14:26:32.199Z,43.93
2018-01-29T14:29:00.768Z,39.93
2018-01-29T14:31:29.316Z,20.70
2018-01-29T14:33:57.863Z,27.93
2018-01-29T14:36:26.371Z,35.17
2018-01-29T14:38:54.927Z,36.13
2018-01-29T14:41:23.431Z,27.70
2018-01-29T14:43:51.940Z,25.57
2018-01-29T14:46:20.783Z,25.33
2018-01-29T14:48:50.091Z,23.67
2018-01-29T14:51:19.359Z,28.63
2018-01-29T14:53:48.380Z,60.93
2018-01-29T14:56:17.712Z,43.33
2018-01-29T14:58:46.215Z,42.20
2018-01-29T15:01:14.828Z,29.97
2018-01-29T15:03:44.091Z,25.83
2018-01-29T15:06:12.663Z,36.70
2018-01-29T15:08:41.385Z,57.70
2018-01-29T15:11:09.887Z,90.17
2018-01-29T15:13:38.396Z,95.60
2018-01-29T15:16:07.707Z,65.57
2018-01-29T15:18:36.266Z,46.30
2018-01-29T15:21:04.767Z,32.57
2018-01-29T15:23:33.482Z,40.50
2018-01-29T15:26:01.992Z,36.53
2018-01-29T15:28:30.582Z,40.87
2018-01-29T15:30:59.732Z,41.67
2018-01-29T15:33:28.235Z,34.73
2018-01-29T15:35:56.809Z,43.07
2018-01-29T15:38:25.546Z,34.47
2018-01-29T15:40:54.105Z,22.23
2018-01-29T15:43:22.615Z,33.37
2018-01-29T15:45:51.504Z,46.00
2018-01-29T15:48:19.995Z,46.83
2018-01-29T15:50:49.267Z,37.47
2018-01-29T15:53:17.816Z,49.37
2018-01-29T15:55:47.093Z,41.50
2018-01-29T15:58:15.600Z,35.60
2018-01-29T16:00:44.502Z,70.43
2018-01-29T16:03:12.995Z,56.53
2018-01-29T16:05:41.497Z,45.50
2018-01-29T16:08:10.880Z,22.67
2018-01-29T16:10:40.153Z,27.97
2018-01-29T16:13:08.669Z,88.97
2018-01-29T16:15:38.384Z,86.33
2018-01-29T16:18:07.657Z,140.70
2018-01-29T16:20:36.156Z,120.00
2018-01-29T16:23:05.775Z,198.60
2018-01-29T16:25:35.115Z,104.83
2018-01-29T16:28:03.691Z,63.07
2018-01-29T16:30:32.527Z,71.03
2018-01-29T16:33:01.103Z,240.43
2018-01-29T16:35:29.615Z,375.20
2018-01-29T16:37:59.115Z,220.70
2018-01-29T16:40:27.615Z,95.00
2018-01-29T16:42:56.936Z,73.30
2018-01-29T16:45:25.787Z,69.97
2018-01-29T16:47:54.295Z,69.10
2018-01-29T16:50:22.816Z,52.57
2018-01-29T16:52:51.368Z,55.63
2018-01-29T16:55:19.869Z,54.80
2018-01-29T16:57:48.371Z,80.33
2018-01-29T17:00:17.746Z,88.63
2018-01-29T17:02:46.247Z,88.53
2018-01-29T17:05:14.750Z,70.23
2018-01-29T17:07:44.125Z,54.07
2018-01-29T17:10:12.652Z,38.00
2018-01-29T17:12:41.213Z,100.27
2018-01-29T17:15:09.770Z,204.10
2018-01-29T17:17:39.100Z,76.03
2018-01-29T17:20:07.604Z,215.30
2018-01-29T17:22:36.613Z,234.60
2018-01-29T17:25:06.770Z,120.23
2018-01-29T17:27:35.290Z,62.10
2018-01-29T17:30:04.689Z,53.17
2018-01-29T17:32:33.202Z,41.97
2018-01-29T17:35:01.723Z,145.10
2018-01-29T17:37:31.040Z,107.50
2018-01-29T17:39:59.600Z,97.73
2018-01-29T17:42:28.103Z,90.17
2018-01-29T17:44:56.710Z,103.43
2018-01-29T17:47:26.038Z,75.87
2018-01-29T17:49:54.552Z,80.73
2018-01-29T17:52:23.321Z,64.80
2018-01-29T17:54:52.585Z,59.97
2018-01-29T17:57:21.083Z,78.87
2018-01-29T17:59:49.801Z,82.70
2018-01-29T18:02:19.071Z,113.03
2018-01-29T18:04:47.608Z,129.53
2018-01-29T18:07:16.163Z,121.70
2018-01-29T18:09:45.423Z,91.63
2018-01-29T18:12:13.928Z,98.30
2018-01-29T18:14:43.311Z,114.87
2018-01-29T18:17:11.877Z,102.53
2018-01-29T18:19:40.376Z,85.67
2018-01-29T18:22:08.933Z,73.70
2018-01-29T18:24:37.424Z,51.23
2018-01-29T18:27:05.930Z,55.03
2018-01-29T18:29:34.548Z,42.67
2018-01-29T18:32:03.054Z,46.27
2018-01-29T18:34:31.544Z,67.40
2018-01-29T18:37:00.152Z,59.27
2018-01-29T18:39:28.647Z,42.23
2018-01-29T18:41:57.925Z,53.03
2018-01-29T18:44:26.708Z,56.90
2018-01-29T18:46:55.301Z,49.90
2018-01-29T18:49:23.815Z,50.77
2018-01-29T18:51:53.312Z,42.50
2018-01-29T18:54:21.871Z,68.30
2018-01-29T18:56:50.369Z,70.60
2018-01-29T18:59:19.256Z,126.97
2018-01-29T19:01:47.759Z,122.67
2018-01-29T19:04:17.028Z,111.20
2018-01-29T19:06:45.575Z,118.87
2018-01-29T19:09:14.137Z,196.23
2018-01-29T19:11:42.713Z,142.33
2018-01-29T19:14:11.361Z,91.33
2018-01-29T19:16:41.233Z,88.30
2018-01-29T19:19:09.737Z,91.60
2018-01-29T19:21:38.739Z,80.13
2018-01-29T19:24:07.223Z,69.60
2018-01-29T19:26:35.730Z,63.10
2018-01-29T19:29:04.267Z,92.00
2018-01-29T19:31:32.775Z,53.03
2018-01-29T19:34:01.348Z,57.80
2018-01-29T19:36:29.888Z,64.87
2018-01-29T19:38:58.428Z,64.07
2018-01-29T19:41:27.000Z,97.00
2018-01-29T19:43:55.607Z,139.63
2018-01-29T19:46:24.117Z,117.30
2018-01-29T19:48:52.621Z,129.90
2018-01-29T19:51:21.168Z,141.03
2018-01-29T19:53:49.736Z,62.40
2018-01-29T19:56:18.296Z,54.03
2018-01-29T19:58:46.908Z,61.17
2018-01-29T20:01:15.478Z,56.27
2018-01-29T20:03:44.845Z,61.70
2018-01-29T20:06:13.622Z,49.07
2018-01-29T20:08:42.947Z,50.47
2018-01-29T20:11:11.462Z,108.87
2018-01-29T20:13:40.940Z,120.93
2018-01-29T20:16:09.504Z,95.63
2018-01-29T20:18:38.005Z,97.40
2018-01-29T20:21:06.652Z,94.00
2018-01-29T20:23:35.207Z,142.90
2018-01-29T20:26:03.727Z,157.83
2018-01-29T20:28:32.522Z,162.03
2018-01-29T20:31:01.096Z,212.53
2018-01-29T20:33:29.645Z,217.33
2018-01-29T20:35:58.572Z,248.03
2018-01-29T20:38:27.099Z,251.67
2018-01-29T20:40:56.428Z,256.53
2018-01-29T20:43:25.316Z,176.80
2018-01-29T20:45:53.824Z,132.13
2018-01-29T20:48:22.360Z,128.17
2018-01-29T20:50:51.206Z,104.13
2018-01-29T20:53:19.768Z,121.90
2018-01-29T20:55:48.276Z,121.50
2018-01-29T20:58:17.052Z,45.70
2018-01-29T21:00:45.551Z,29.60
2018-01-29T21:03:14.920Z,22.47
2018-01-29T21:05:43.459Z,39.60
2018-01-29T21:08:12.786Z,56.90
2018-01-29T21:10:41.345Z,117.50
2018-01-29T21:13:10.847Z,62.97
2018-01-29T21:15:40.171Z,44.33
2018-01-29T21:18:08.673Z,103.10
2018-01-29T21:20:37.228Z,127.80
2018-01-29T21:23:05.728Z,98.00
2018-01-29T21:25:34.604Z,82.47
2018-01-29T21:28:03.151Z,69.63
2018-01-29T21:30:31.672Z,53.50
2018-01-29T21:33:00.227Z,46.03
2018-01-29T21:35:29.740Z,68.67
2018-01-29T21:37:59.007Z,80.77
2018-01-29T21:40:27.515Z,82.90
2018-01-29T21:42:56.887Z,117.83
2018-01-29T21:45:25.388Z,91.20
2018-01-29T21:47:53.892Z,64.87
2018-01-29T21:50:23.204Z,43.00
2018-01-29T21:52:51.691Z,36.27
2018-01-29T21:55:20.253Z,46.10
2018-01-29T21:57:49.744Z,36.97
2018-01-29T22:00:18.239Z,40.33
2018-01-29T22:02:47.564Z,43.97
2018-01-29T22:05:16.419Z,47.30
2018-01-29T22:07:44.973Z,39.53
2018-01-29T22:10:13.466Z,45.67
2018-01-29T22:12:42.008Z,55.23
2018-01-29T22:15:10.523Z,75.33
2018-01-29T22:17:39.023Z,58.77
2018-01-29T22:20:07.572Z,49.90
2018-01-29T22:22:36.105Z,45.20
2018-01-29T22:25:05.440Z,44.33
2018-01-29T22:27:34.127Z,47.40
2018-01-29T22:30:02.623Z,56.77
2018-01-29T22:32:31.122Z,46.90
2018-01-29T22:34:59.686Z,38.10
2018-01-29T22:37:28.259Z,38.50
2018-01-29T22:39:56.818Z,45.33
2018-01-29T22:42:25.536Z,41.33
2018-01-29T22:44:54.025Z,42.73
2018-01-29T22:47:22.576Z,50.13
2018-01-29T22:49:51.180Z,70.83
2018-01-29T22:52:19.671Z,52.80
2018-01-29T22:54:48.220Z,52.70
2018-01-29T22:57:17.075Z,53.30
2018-01-29T22:59:45.660Z,52.83
2018-01-29T23:02:14.143Z,52.47
2018-01-29T23:04:43.020Z,50.43
2018-01-29T23:07:11.515Z,67.30
2018-01-29T23:09:40.776Z,55.83
2018-01-29T23:12:09.606Z,50.57
2018-01-29T23:14:38.929Z,48.73
2018-01-29T23:17:07.483Z,40.20
2018-01-29T23:19:36.119Z,41.30
2018-01-29T23:22:04.616Z,40.83
2018-01-29T23:24:33.171Z,44.23
2018-01-29T23:27:01.714Z,46.00
2018-01-29T23:29:31.041Z,45.80
2018-01-29T23:31:59.597Z,62.27
2018-01-29T23:34:28.199Z,129.80
2018-01-29T23:36:57.452Z,78.17
2018-01-29T23:39:26.005Z,45.90
2018-01-29T23:41:54.822Z,53.83
2018-01-29T23:44:24.189Z,47.47
2018-01-29T23:46:52.739Z,39.53
2018-01-29T23:49:21.327Z,40.27
2018-01-29T23:51:50.592Z,38.63
2018-01-29T23:54:19.099Z,28.10
2018-01-29T23:56:48.067Z,26.30
2018-01-29T23:59:16.571Z,32.17
